Time;durP1;ratioP1;P1;durP2;ratioP2;P2;SDS_P1;SDS_P2;PMS_P1;PMS_P2;Temp;Humidity;BMP_temperature;BMP_pressure;BME280_temperature;BME280_humidity;BME280_pressure;Samples;Min_cycle;Max_cycle;Signal;HPM_P1;HPM_P2
2020/12/03 00:00:22;;;;;;;35.10;18.07;;;;;;;3.40;81.37;95830.53;5084290;28;20809;-58
2020/12/03 00:02:47;;;;;;;34.57;19.13;;;;;;;3.62;80.88;95821.63;5081065;28;20765;-58
2020/12/03 00:05:13;;;;;;;32.47;17.87;;;;;;;3.67;80.16;95825.25;5075118;28;20401;-60
2020/12/03 00:07:38;;;;;;;31.80;17.77;;;;;;;3.83;80.06;95826.66;5074714;28;20249;-60
2020/12/03 00:10:04;;;;;;;37.60;18.27;;;;;;;3.93;79.84;95816.72;5077081;28;20211;-60
2020/12/03 00:12:29;;;;;;;33.93;18.57;;;;;;;3.97;79.91;95823.09;5095015;28;20259;-58
2020/12/03 00:14:54;;;;;;;33.23;19.77;;;;;;;4.02;79.58;95815.53;5082905;28;20185;-60
2020/12/03 00:17:20;;;;;;;28.07;17.30;;;;;;;4.09;79.04;95811.91;5073937;28;20208;-58
2020/12/03 00:19:45;;;;;;;39.50;19.80;;;;;;;4.05;79.15;95804.72;5074067;28;20194;-60
2020/12/03 00:22:10;;;;;;;32.83;18.37;;;;;;;4.08;79.82;95806.91;5074538;28;20177;-58
2020/12/03 00:24:36;;;;;;;34.63;19.57;;;;;;;4.12;79.05;95803.72;5074669;28;20642;-58
2020/12/03 00:27:10;;;;;;;34.17;18.10;;;;;;;4.17;78.63;95805.72;5074902;28;20190;-60
2020/12/03 00:29:36;;;;;;;35.00;17.67;;;;;;;4.13;79.32;95807.13;5074341;28;20212;-58
2020/12/03 00:32:03;;;;;;;35.10;17.50;;;;;;;4.13;79.49;95799.34;5073841;28;20505;-58
2020/12/03 00:34:28;;;;;;;34.47;18.73;;;;;;;4.18;78.59;95805.50;5074412;28;20459;-60
2020/12/03 00:36:54;;;;;;;36.00;20.50;;;;;;;4.14;78.91;95804.34;5074024;28;20499;-58
2020/12/03 00:39:20;;;;;;;33.63;18.40;;;;;;;4.10;79.07;95803.13;5073962;28;20601;-61
2020/12/03 00:41:52;;;;;;;34.30;19.13;;;;;;;3.90;80.14;95801.50;5075580;28;20176;-58
2020/12/03 00:44:18;;;;;;;37.30;19.23;;;;;;;3.76;80.76;95792.91;5074195;28;20782;-60
2020/12/03 00:46:44;;;;;;;35.13;20.20;;;;;;;3.82;80.71;95786.91;5073873;28;20408;-58
2020/12/03 00:49:10;;;;;;;32.27;19.10;;;;;;;3.89;80.46;95781.72;5073929;28;20461;-58
2020/12/03 00:51:35;;;;;;;40.33;20.83;;;;;;;3.90;80.75;95775.53;5073843;28;20420;-58
2020/12/03 00:54:01;;;;;;;37.00;19.90;;;;;;;3.90;80.31;95772.91;5075104;28;20236;-58
2020/12/03 00:56:26;;;;;;;37.93;19.10;;;;;;;3.87;80.48;95774.13;5073628;28;20180;-58
2020/12/03 00:58:52;;;;;;;31.43;17.87;;;;;;;3.70;81.04;95777.28;5073956;28;20224;-58
2020/12/03 01:01:19;;;;;;;41.93;19.17;;;;;;;3.69;81.28;95781.69;5074269;28;20252;-58
2020/12/03 01:03:48;;;;;;;41.43;21.40;;;;;;;3.61;81.94;95778.47;5074178;28;20639;-60
2020/12/03 01:06:14;;;;;;;39.40;19.37;;;;;;;3.71;81.96;95779.72;5073941;28;20489;-58
2020/12/03 01:08:39;;;;;;;43.70;20.50;;;;;;;3.75;81.92;95774.91;5073111;28;20491;-58
2020/12/03 01:11:05;;;;;;;39.83;18.83;;;;;;;3.87;81.79;95770.72;5073726;28;20476;-58
2020/12/03 01:13:31;;;;;;;36.20;19.47;;;;;;;3.95;81.31;95776.53;5073788;28;20177;-60
2020/12/03 01:15:57;;;;;;;34.33;20.80;;;;;;;3.98;81.18;95764.94;5073872;28;20458;-58
2020/12/03 01:18:23;;;;;;;42.40;20.40;;;;;;;3.99;80.52;95769.13;5073457;28;20409;-61
2020/12/03 01:20:48;;;;;;;34.90;19.70;;;;;;;4.02;80.46;95766.16;5073672;28;20185;-60
2020/12/03 01:23:14;;;;;;;40.47;19.57;;;;;;;4.04;79.89;95762.34;5074835;28;20233;-61
2020/12/03 01:25:40;;;;;;;39.90;20.03;;;;;;;4.00;80.20;95762.94;5072985;28;20177;-58
2020/12/03 01:28:05;;;;;;;35.10;19.10;;;;;;;3.93;80.92;95768.13;5073229;28;20594;-58
2020/12/03 01:30:31;;;;;;;41.70;19.90;;;;;;;4.05;80.91;95766.56;5083255;28;20466;-57
2020/12/03 01:32:56;;;;;;;36.93;19.87;;;;;;;4.20;79.69;95764.53;5093109;28;20181;-60
2020/12/03 01:35:22;;;;;;;43.70;21.30;;;;;;;4.11;80.00;95760.53;5093380;28;20263;-58
2020/12/03 01:37:49;;;;;;;42.13;21.77;;;;;;;4.01;79.70;95756.75;5090012;28;20653;-59
2020/12/03 01:40:18;;;;;;;34.67;18.80;;;;;;;4.02;80.09;95758.34;5073014;28;20281;-61
2020/12/03 01:42:44;;;;;;;41.80;20.63;;;;;;;3.99;79.95;95759.53;5073588;28;20411;-60
2020/12/03 01:45:46;;;;;;;35.13;19.77;;;;;;;4.05;79.75;95747.56;5073531;28;20437;-58
2020/12/03 01:48:41;;;;;;;36.73;20.73;;;;;;;4.05;79.82;95739.75;5072900;28;20169;-58
2020/12/03 01:51:13;;;;;;;40.37;21.87;;;;;;;4.12;79.95;95736.16;5073596;28;20444;-61
2020/12/03 01:53:38;;;;;;;40.50;21.33;;;;;;;4.20;80.48;95732.56;5075655;28;20483;-60
2020/12/03 01:56:19;;;;;;;37.63;20.23;;;;;;;4.23;79.84;95732.16;5073414;28;20400;-60
2020/12/03 01:58:45;;;;;;;38.93;19.73;;;;;;;4.35;79.35;95730.50;5093277;28;20167;-58
2020/12/03 02:01:11;;;;;;;36.40;20.47;;;;;;;4.37;78.95;95731.13;5093398;28;20432;-60
2020/12/03 02:03:46;;;;;;;40.20;19.40;;;;;;;4.32;79.15;95735.31;5093404;28;20899;-60
2020/12/03 02:06:20;;;;;;;33.57;18.43;;;;;;;4.04;78.29;95730.38;5088447;28;20423;-58
2020/12/03 02:08:45;;;;;;;41.80;21.13;;;;;;;4.14;79.30;95717.75;5072545;28;20810;-59
2020/12/03 02:11:11;;;;;;;36.03;19.00;;;;;;;4.28;78.92;95714.13;5073133;28;20434;-61
2020/12/03 02:13:36;;;;;;;33.47;19.50;;;;;;;4.39;78.36;95710.09;5073458;28;20168;-58
2020/12/03 02:16:02;;;;;;;30.80;19.17;;;;;;;4.23;78.24;95713.94;5072981;28;20232;-58
2020/12/03 02:18:27;;;;;;;31.77;18.03;;;;;;;4.16;78.70;95707.97;5072782;28;20175;-58
2020/12/03 02:20:53;;;;;;;33.33;17.57;;;;;;;4.28;78.55;95702.94;5084399;28;20584;-60
2020/12/03 02:23:18;;;;;;;35.80;18.63;;;;;;;4.42;78.04;95694.13;5073781;28;20260;-60
2020/12/03 02:25:44;;;;;;;32.20;19.20;;;;;;;4.48;78.29;95694.09;5073150;28;20260;-60
2020/12/03 02:28:10;;;;;;;34.17;19.70;;;;;;;4.47;78.55;95691.69;5072610;28;20238;-58
2020/12/03 02:30:35;;;;;;;37.40;19.60;;;;;;;4.40;78.62;95699.53;5072804;28;20472;-58
2020/12/03 02:33:01;;;;;;;35.87;20.07;;;;;;;4.11;78.42;95692.97;5072957;28;20176;-58
2020/12/03 02:35:26;;;;;;;31.43;18.97;;;;;;;3.84;80.56;95691.38;5073988;28;20694;-60
2020/12/03 02:37:52;;;;;;;31.80;19.37;;;;;;;4.13;79.89;95688.34;5070849;28;20201;-61
2020/12/03 02:40:17;;;;;;;37.87;20.00;;;;;;;3.81;80.67;95691.78;5072699;28;20270;-58
2020/12/03 02:42:43;;;;;;;33.00;18.87;;;;;;;3.92;79.75;95686.00;5073382;28;20177;-58
2020/12/03 02:45:08;;;;;;;33.10;20.63;;;;;;;4.15;80.07;95688.97;5075266;28;20292;-58
2020/12/03 02:47:34;;;;;;;39.27;21.70;;;;;;;4.22;79.43;95689.75;5079199;28;20172;-60
2020/12/03 02:49:59;;;;;;;37.60;22.30;;;;;;;4.20;79.59;95676.16;5076866;28;20200;-58
2020/12/03 02:52:25;;;;;;;36.57;20.23;;;;;;;4.30;79.71;95674.94;5076050;28;20188;-59
2020/12/03 02:54:52;;;;;;;38.50;21.27;;;;;;;3.91;80.77;95678.41;5091650;28;20213;-58
2020/12/03 02:57:18;;;;;;;38.80;20.30;;;;;;;3.69;81.34;95674.41;5096239;28;20222;-58
2020/12/03 02:59:43;;;;;;;36.77;20.20;;;;;;;3.82;81.31;95680.38;5095221;28;20485;-60
2020/12/03 03:02:09;;;;;;;37.47;20.70;;;;;;;3.83;81.39;95676.81;5095432;28;20420;-58
2020/12/03 03:04:35;;;;;;;41.17;21.23;;;;;;;3.92;81.07;95675.59;5096611;28;20254;-58
2020/12/03 03:07:00;;;;;;;35.57;20.70;;;;;;;4.03;81.18;95679.38;5081485;28;20905;-58
2020/12/03 03:09:26;;;;;;;37.20;21.20;;;;;;;3.71;81.94;95683.63;5075851;28;20816;-60
2020/12/03 03:11:52;;;;;;;34.37;21.87;;;;;;;3.38;83.57;95676.78;5076253;28;20259;-58
2020/12/03 03:14:18;;;;;;;35.60;21.07;;;;;;;3.38;83.59;95675.00;5076024;28;20181;-60
2020/12/03 03:16:46;;;;;;;33.40;20.17;;;;;;;3.72;82.52;95666.22;5085194;28;20181;-58
2020/12/03 03:19:13;;;;;;;36.60;19.53;;;;;;;3.73;83.15;95668.59;5096734;28;20901;-60
2020/12/03 03:21:38;;;;;;;35.30;20.17;;;;;;;3.82;82.15;95669.22;5082389;28;20523;-61
2020/12/03 03:24:04;;;;;;;39.03;22.00;;;;;;;3.67;82.37;95668.63;5075763;28;20499;-58
2020/12/03 03:26:29;;;;;;;36.83;19.90;;;;;;;3.42;83.05;95667.59;5075270;28;20179;-60
2020/12/03 03:28:55;;;;;;;39.40;21.87;;;;;;;3.15;83.95;95671.97;5078130;28;20198;-61
2020/12/03 03:31:21;;;;;;;39.90;21.63;;;;;;;3.17;85.13;95675.13;5096255;28;20165;-60
2020/12/03 03:33:47;;;;;;;37.53;20.70;;;;;;;3.38;84.05;95669.00;5096008;28;20186;-58
2020/12/03 03:36:12;;;;;;;37.23;20.40;;;;;;;3.21;85.09;95668.56;5083852;28;20430;-60
2020/12/03 03:38:38;;;;;;;38.03;22.87;;;;;;;3.26;84.75;95660.19;5074885;28;20410;-58
2020/12/03 03:41:03;;;;;;;40.63;23.30;;;;;;;2.82;86.44;95652.91;5075498;28;20166;-58
2020/12/03 03:43:29;;;;;;;39.70;23.70;;;;;;;3.09;85.84;95654.59;5075039;28;20181;-60
2020/12/03 03:45:54;;;;;;;36.97;22.03;;;;;;;2.98;85.63;95657.75;5074928;28;20242;-60
2020/12/03 03:48:21;;;;;;;39.93;22.37;;;;;;;2.87;86.71;95653.13;5088058;28;20179;-58
2020/12/03 03:50:46;;;;;;;36.70;20.70;;;;;;;2.78;86.36;95657.69;5090264;28;20206;-60
2020/12/03 03:53:11;;;;;;;34.70;20.07;;;;;;;2.89;86.53;95651.94;5075247;28;20407;-58
2020/12/03 03:55:38;;;;;;;34.80;19.47;;;;;;;2.90;86.20;95655.31;5075058;28;20167;-58
2020/12/03 03:58:07;;;;;;;36.30;20.57;;;;;;;3.07;86.23;95644.41;5075024;28;20179;-60
2020/12/03 04:00:40;;;;;;;35.60;21.23;;;;;;;3.00;85.61;95650.56;5074914;28;20429;-60
2020/12/03 04:03:13;;;;;;;37.30;21.30;;;;;;;2.96;86.62;95646.75;5075783;28;20951;-60
2020/12/03 04:05:44;;;;;;;40.17;21.67;;;;;;;2.95;86.24;95647.78;5075056;28;20444;-58
2020/12/03 04:08:11;;;;;;;42.57;23.47;;;;;;;3.04;86.22;95649.97;5074645;28;20412;-60
2020/12/03 04:10:38;;;;;;;34.13;21.40;;;;;;;2.90;86.55;95642.34;5074767;28;20460;-58
2020/12/03 04:13:04;;;;;;;38.80;21.47;;;;;;;2.80;86.43;95642.75;5074962;28;20485;-58
2020/12/03 04:15:29;;;;;;;40.73;22.17;;;;;;;2.89;86.86;95640.75;5074608;28;20425;-60
2020/12/03 04:17:55;;;;;;;34.17;21.40;;;;;;;2.58;87.88;95641.28;5078099;28;20175;-60
2020/12/03 04:20:20;;;;;;;41.30;22.83;;;;;;;2.89;86.66;95638.16;5074347;28;20276;-58
2020/12/03 04:22:46;;;;;;;39.83;22.30;;;;;;;2.75;87.25;95636.53;5074651;28;20175;-58
2020/12/03 04:25:11;;;;;;;34.93;22.10;;;;;;;2.78;87.23;95631.75;5074694;28;20268;-58
2020/12/03 04:27:37;;;;;;;33.70;20.53;;;;;;;2.49;87.97;95636.44;5074078;28;20555;-60
2020/12/03 04:30:06;;;;;;;33.90;20.77;;;;;;;2.69;88.06;95626.94;5074501;28;20201;-58
2020/12/03 04:32:32;;;;;;;34.30;21.30;;;;;;;2.34;89.39;95628.03;5074529;28;20728;-60
2020/12/03 04:34:57;;;;;;;40.00;21.23;;;;;;;2.51;89.32;95624.91;5074200;28;20419;-58
2020/12/03 04:37:22;;;;;;;39.30;20.00;;;;;;;2.77;87.91;95619.00;5072726;28;20449;-58
2020/12/03 04:39:48;;;;;;;39.50;21.97;;;;;;;2.73;87.53;95628.16;5074362;28;20554;-60
2020/12/03 04:42:28;;;;;;;33.50;20.00;;;;;;;2.68;87.60;95622.75;5073992;28;20651;-60
2020/12/03 04:44:59;;;;;;;35.70;19.70;;;;;;;2.80;86.82;95621.19;5074388;28;20178;-59
2020/12/03 04:48:14;;;;;;;38.77;19.97;;;;;;;2.46;88.57;95626.47;5092534;28;20489;-58
2020/12/03 04:51:05;;;;;;;36.10;20.67;;;;;;;2.00;91.16;95615.88;5058953;28;20534;-60
2020/12/03 04:54:03;;;;;;;32.10;16.90;;;;;;;2.03;90.83;95618.88;5094498;28;20385;-60
2020/12/03 04:56:35;;;;;;;27.50;16.60;;;;;;;2.19;91.19;95619.56;5094159;28;20412;-60
2020/12/03 04:59:38;;;;;;;28.70;18.47;;;;;;;2.39;90.19;95612.69;5076194;28;20468;-58
2020/12/03 05:02:18;;;;;;;30.07;17.73;;;;;;;2.44;89.12;95613.72;5073872;28;20414;-58
2020/12/03 05:05:04;;;;;;;31.87;18.80;;;;;;;2.41;89.40;95615.88;5074286;28;20420;-58
2020/12/03 05:07:30;;;;;;;29.90;17.27;;;;;;;2.48;88.86;95611.53;5073294;28;20508;-58
2020/12/03 05:10:14;;;;;;;30.10;17.10;;;;;;;2.33;89.71;95606.47;5073617;28;20540;-58
2020/12/03 05:12:43;;;;;;;30.40;18.67;;;;;;;2.49;89.63;95608.72;5078385;28;20677;-60
2020/12/03 05:15:35;;;;;;;33.40;17.63;;;;;;;2.59;88.57;95603.97;5073946;28;20477;-60
2020/12/03 05:18:47;;;;;;;29.30;15.93;;;;;;;2.85;87.76;95603.25;5071399;28;20425;-60
2020/12/03 05:21:18;;;;;;;26.27;16.77;;;;;;;2.55;87.94;95599.38;5061116;28;20417;-60
2020/12/03 05:23:43;;;;;;;26.47;17.27;;;;;;;2.36;89.31;95592.31;5073842;28;20936;-60
2020/12/03 05:26:16;;;;;;;28.53;16.67;;;;;;;2.53;88.30;95583.22;5074676;28;20420;-60
2020/12/03 05:28:48;;;;;;;23.00;14.50;;;;;;;2.50;87.83;95589.59;5073207;28;20183;-58
2020/12/03 05:31:23;;;;;;;22.03;15.40;;;;;;;2.53;87.29;95578.84;5073539;28;20779;-58
2020/12/03 05:33:50;;;;;;;24.57;14.97;;;;;;;2.54;87.37;95582.22;5074564;28;20802;-59
2020/12/03 05:36:25;;;;;;;22.40;15.10;;;;;;;2.53;87.26;95572.84;5073541;28;20455;-58
2020/12/03 05:38:52;;;;;;;23.90;15.13;;;;;;;2.55;87.35;95568.28;5073459;28;20800;-60
2020/12/03 05:41:19;;;;;;;21.23;14.57;;;;;;;2.54;86.85;95572.66;5089707;28;20424;-60
2020/12/03 05:43:45;;;;;;;30.30;16.30;;;;;;;2.62;87.61;95566.50;5073551;28;20419;-58
2020/12/03 05:46:12;;;;;;;23.10;15.87;;;;;;;2.63;86.53;95563.69;5073405;28;20413;-58
2020/12/03 05:48:38;;;;;;;19.90;13.77;;;;;;;2.44;86.67;95566.25;5072932;28;20654;-58
2020/12/03 05:51:24;;;;;;;21.40;13.90;;;;;;;2.42;87.41;95557.88;5073583;28;20443;-58
2020/12/03 05:54:03;;;;;;;22.73;14.90;;;;;;;2.43;87.77;95543.94;5074323;28;20178;-60
2020/12/03 05:56:31;;;;;;;21.83;13.37;;;;;;;2.54;87.56;95548.53;5072844;28;20417;-58
2020/12/03 05:59:11;;;;;;;21.07;14.60;;;;;;;2.73;86.87;95551.19;5072882;28;20488;-59
2020/12/03 06:01:41;;;;;;;17.07;13.63;;;;;;;2.81;86.25;95547.56;5072969;28;20931;-60
2020/12/03 06:04:36;;;;;;;21.20;14.20;;;;;;;2.92;86.43;95547.78;5073287;28;20492;-60
2020/12/03 06:07:29;;;;;;;20.50;15.50;;;;;;;2.97;85.87;95542.81;5071291;28;20429;-61
2020/12/03 06:10:00;;;;;;;18.93;14.83;;;;;;;3.21;84.89;95548.41;5093284;28;20494;-58
2020/12/03 06:12:28;;;;;;;19.60;13.40;;;;;;;3.21;84.52;95551.00;5081025;28;20980;-60
2020/12/03 06:15:15;;;;;;;21.43;14.23;;;;;;;3.07;84.29;95543.22;5072997;28;20911;-60
2020/12/03 06:17:51;;;;;;;22.00;15.07;;;;;;;3.20;85.20;95544.22;5073530;28;20413;-60
2020/12/03 06:20:35;;;;;;;18.37;12.80;;;;;;;3.38;84.23;95537.41;5077141;28;20425;-60
2020/12/03 06:23:27;;;;;;;19.53;13.73;;;;;;;3.09;84.59;95546.41;5080039;28;20435;-61
2020/12/03 06:26:11;;;;;;;21.37;14.00;;;;;;;3.04;85.42;95543.59;5076752;28;20418;-59
2020/12/03 06:28:36;;;;;;;19.83;14.17;;;;;;;3.35;84.03;95532.63;5076498;28;20429;-60
2020/12/03 06:31:21;;;;;;;19.63;14.10;;;;;;;3.36;83.32;95544.59;5076751;28;20463;-60
2020/12/03 06:34:19;;;;;;;19.10;13.47;;;;;;;3.35;83.16;95539.63;5076829;28;20637;-60
2020/12/03 06:36:56;;;;;;;17.97;14.20;;;;;;;3.43;82.68;95539.41;5076622;28;20437;-58
2020/12/03 06:39:21;;;;;;;16.10;12.50;;;;;;;3.40;82.65;95543.22;5076701;28;20876;-58
2020/12/03 06:41:46;;;;;;;18.70;13.10;;;;;;;3.35;83.34;95537.81;5076259;28;20513;-60
2020/12/03 06:44:19;;;;;;;21.80;13.53;;;;;;;3.43;82.28;95537.59;5075282;28;20175;-60
2020/12/03 06:46:59;;;;;;;22.00;14.30;;;;;;;3.54;81.80;95536.19;5076357;28;20178;-58
2020/12/03 06:49:42;;;;;;;20.97;14.93;;;;;;;3.27;83.33;95532.03;5083659;28;20488;-58
2020/12/03 06:52:20;;;;;;;17.43;13.80;;;;;;;3.38;82.92;95537.41;5096856;28;20429;-60
2020/12/03 06:55:20;;;;;;;18.70;13.40;;;;;;;3.43;82.27;95527.22;5096899;28;20400;-60
2020/12/03 06:57:58;;;;;;;19.10;12.77;;;;;;;3.61;82.32;95531.78;5055101;28;20488;-60
2020/12/03 07:00:23;;;;;;;18.53;13.77;;;;;;;3.60;81.42;95533.59;5077244;28;20932;-60
2020/12/03 07:03:06;;;;;;;18.10;13.80;;;;;;;3.67;81.39;95528.38;5076246;28;20408;-58
2020/12/03 07:05:38;;;;;;;15.50;12.10;;;;;;;3.83;81.66;95533.13;5076411;28;20182;-58
2020/12/03 07:08:37;;;;;;;18.80;13.40;;;;;;;3.85;81.22;95526.72;5075754;28;20978;-58
2020/12/03 07:11:23;;;;;;;20.87;13.90;;;;;;;3.93;80.39;95517.91;5075745;28;20897;-58
2020/12/03 07:14:25;;;;;;;19.30;13.20;;;;;;;3.86;79.73;95520.53;5075995;28;20410;-60
2020/12/03 07:17:32;;;;;;;18.70;12.30;;;;;;;3.78;80.60;95518.16;5077596;28;20423;-60
2020/12/03 07:20:19;;;;;;;19.40;13.83;;;;;;;3.83;80.97;95510.56;5096130;28;20448;-58
2020/12/03 07:23:30;;;;;;;16.37;11.63;;;;;;;3.81;80.38;95515.16;5096502;28;20414;-58
2020/12/03 07:25:56;;;;;;;18.90;13.60;;;;;;;3.75;80.40;95510.75;5086268;28;20423;-61
2020/12/03 07:28:35;;;;;;;18.43;12.50;;;;;;;3.50;81.24;95514.22;5075023;28;20435;-60
2020/12/03 07:31:02;;;;;;;20.00;13.40;;;;;;;3.08;82.78;95515.47;5054700;28;21034;-58
2020/12/03 07:34:02;;;;;;;16.73;12.40;;;;;;;3.24;82.54;95517.66;5090587;28;20513;-60
2020/12/03 07:36:38;;;;;;;17.13;11.60;;;;;;;3.06;83.15;95514.88;5095692;28;20409;-58
2020/12/03 07:39:06;;;;;;;18.67;13.30;;;;;;;3.00;83.65;95505.28;5093558;28;20438;-58
2020/12/03 07:41:39;;;;;;;18.20;12.33;;;;;;;3.33;82.50;95516.47;5075410;28;20462;-60
2020/12/03 07:44:18;;;;;;;16.33;11.60;;;;;;;3.18;82.89;95510.69;5075478;28;20451;-58
2020/12/03 07:46:45;;;;;;;15.07;11.00;;;;;;;2.94;82.51;95508.69;5083193;28;20421;-60
2020/12/03 07:49:30;;;;;;;12.93;9.70;;;;;;;3.17;81.89;95509.06;5075978;28;20459;-58
2020/12/03 07:52:18;;;;;;;14.07;9.50;;;;;;;3.31;80.34;95494.28;5078958;28;20429;-59
2020/12/03 07:54:43;;;;;;;12.03;9.27;;;;;;;3.48;79.59;95493.66;5075102;28;20414;-60
2020/12/03 07:57:45;;;;;;;13.50;9.77;;;;;;;3.56;78.92;95479.66;5074972;28;20435;-58
2020/12/03 08:00:29;;;;;;;11.57;8.40;;;;;;;3.88;78.59;95473.56;5084180;28;20221;-60
2020/12/03 08:02:56;;;;;;;12.53;8.47;;;;;;;3.90;75.84;95468.94;5094223;28;20505;-60
2020/12/03 08:05:47;;;;;;;10.23;7.77;;;;;;;3.54;75.31;95479.06;5075016;28;20434;-61
2020/12/03 08:08:21;;;;;;;9.60;8.00;;;;;;;3.52;76.37;95476.69;5091424;28;20420;-59
2020/12/03 08:10:47;;;;;;;11.10;7.80;;;;;;;3.60;75.57;95478.25;5075626;28;20890;-58
2020/12/03 08:13:22;;;;;;;8.47;7.10;;;;;;;3.76;73.98;95476.00;5075794;28;20508;-58
2020/12/03 08:16:03;;;;;;;9.50;8.00;;;;;;;3.63;74.53;95475.25;5054863;28;20451;-58
2020/12/03 08:18:59;;;;;;;11.80;7.87;;;;;;;3.60;75.67;95479.06;5057222;28;20471;-59
2020/12/03 08:21:38;;;;;;;10.70;7.70;;;;;;;3.53;76.46;95464.50;5062537;28;20421;-57
2020/12/03 08:24:06;;;;;;;10.00;7.87;;;;;;;3.50;77.11;95459.69;5074616;28;20891;-58
2020/12/03 08:26:33;;;;;;;10.63;7.80;;;;;;;3.66;76.65;95460.03;5077910;28;20933;-59
2020/12/03 08:28:58;;;;;;;11.20;7.63;;;;;;;3.83;76.13;95455.19;5080910;28;20854;-61
2020/12/03 08:31:23;;;;;;;11.03;8.00;;;;;;;3.63;76.66;95450.09;5086574;28;20424;-58
2020/12/03 08:33:53;;;;;;;11.80;9.17;;;;;;;3.80;76.10;95451.22;5074204;28;20556;-57
2020/12/03 08:36:18;;;;;;;11.70;8.70;;;;;;;3.71;77.53;95457.66;5075816;28;20721;-59
2020/12/03 08:38:51;;;;;;;10.80;8.70;;;;;;;3.65;77.76;95457.66;5076239;28;20417;-60
2020/12/03 08:41:18;;;;;;;14.33;8.97;;;;;;;3.72;77.20;95443.66;5074447;28;20230;-58
2020/12/03 08:43:50;;;;;;;12.03;9.00;;;;;;;3.76;77.85;95444.03;5088450;28;20759;-59
2020/12/03 08:46:22;;;;;;;12.60;9.73;;;;;;;3.66;77.73;95443.69;5091671;28;20961;-57
2020/12/03 08:48:48;;;;;;;12.20;9.63;;;;;;;3.93;77.83;95435.56;5083294;28;20792;-60
2020/12/03 08:51:16;;;;;;;13.00;10.47;;;;;;;3.87;76.62;95426.03;5073470;28;20467;-58
2020/12/03 08:53:47;;;;;;;12.37;10.00;;;;;;;3.67;78.33;95424.50;5082609;28;20236;-59
2020/12/03 08:56:15;;;;;;;17.90;11.07;;;;;;;3.73;79.06;95426.28;5074456;28;20453;-58
2020/12/03 08:58:56;;;;;;;16.63;9.87;;;;;;;3.85;78.01;95416.81;5073743;28;20410;-58
2020/12/03 09:01:24;;;;;;;13.97;10.10;;;;;;;3.73;78.37;95421.09;5073949;28;20411;-57
2020/12/03 09:03:51;;;;;;;15.00;11.70;;;;;;;3.94;77.89;95418.19;5074919;28;20845;-57
2020/12/03 09:06:16;;;;;;;16.00;10.90;;;;;;;3.89;77.97;95416.22;5074134;28;20417;-65
2020/12/03 09:08:42;;;;;;;16.10;11.63;;;;;;;3.98;78.39;95399.38;5073039;28;20427;-57
2020/12/03 09:11:09;;;;;;;16.30;12.57;;;;;;;4.08;77.88;95406.69;5073913;28;20201;-57
2020/12/03 09:13:35;;;;;;;14.03;11.27;;;;;;;3.84;77.99;95400.44;5073549;28;20176;-58
2020/12/03 09:16:01;;;;;;;16.17;12.30;;;;;;;3.96;77.70;95387.59;5073819;28;20437;-57
2020/12/03 09:18:27;;;;;;;17.53;12.47;;;;;;;4.01;77.95;95388.56;5074984;28;20174;-57
2020/12/03 09:20:53;;;;;;;14.43;11.00;;;;;;;3.76;78.54;95384.31;5080127;28;20456;-59
2020/12/03 09:23:22;;;;;;;16.57;12.13;;;;;;;4.05;77.99;95383.75;5070165;28;20186;-59
2020/12/03 09:25:49;;;;;;;18.60;13.47;;;;;;;4.22;77.17;95373.66;5070276;28;20632;-60
2020/12/03 09:28:15;;;;;;;15.90;11.90;;;;;;;4.26;76.63;95370.41;5069369;28;20467;-61
2020/12/03 09:30:45;;;;;;;15.30;11.13;;;;;;;4.07;76.29;95371.34;5069294;28;20478;-65
2020/12/03 09:33:15;;;;;;;14.00;11.27;;;;;;;4.34;76.44;95375.34;5070382;28;20992;-66
2020/12/03 09:35:42;;;;;;;13.40;11.10;;;;;;;4.22;77.09;95367.41;5069949;28;20484;-72
2020/12/03 09:38:09;;;;;;;14.17;11.30;;;;;;;4.40;76.29;95365.91;5087893;28;20424;-64
2020/12/03 09:40:36;;;;;;;14.47;11.07;;;;;;;4.22;76.54;95370.03;5070950;28;20798;-64
2020/12/03 09:43:02;;;;;;;14.80;10.87;;;;;;;3.69;78.84;95354.97;5069904;28;20947;-63
2020/12/03 09:45:34;;;;;;;14.77;11.70;;;;;;;4.14;77.80;95353.91;5069514;28;20459;-64
2020/12/03 09:48:02;;;;;;;13.27;10.33;;;;;;;4.05;76.60;95344.75;5083736;28;20431;-63
2020/12/03 09:50:27;;;;;;;12.23;10.20;;;;;;;4.19;77.17;95339.25;5089889;28;20462;-66
2020/12/03 09:52:54;;;;;;;12.60;10.60;;;;;;;3.97;77.41;95338.00;5076328;28;20475;-65
2020/12/03 09:55:20;;;;;;;14.10;11.20;;;;;;;3.50;79.16;95335.88;5078886;28;20179;-60
2020/12/03 09:57:55;;;;;;;13.70;10.50;;;;;;;3.85;78.43;95334.50;5089069;28;20923;-65
2020/12/03 10:00:28;;;;;;;14.67;11.33;;;;;;;3.74;77.72;95332.56;5089902;28;20442;-64
2020/12/03 10:02:54;;;;;;;13.20;10.77;;;;;;;3.53;78.62;95319.91;5080826;28;20430;-61
2020/12/03 10:05:50;;;;;;;14.93;11.17;;;;;;;3.77;78.42;95303.56;5073003;28;20411;-63
2020/12/03 10:08:57;;;;;;;14.30;10.60;;;;;;;3.95;76.91;95306.25;5073323;28;20182;-58
2020/12/03 10:12:00;;;;;;;12.60;10.13;;;;;;;3.88;78.06;95305.50;5073429;28;20769;-63
2020/12/03 10:14:52;;;;;;;12.83;9.83;;;;;;;4.07;77.71;95301.97;5068933;28;20595;-56
2020/12/03 10:17:18;;;;;;;12.47;10.23;;;;;;;4.03;78.13;95290.41;5072698;28;20454;-57
2020/12/03 10:19:46;;;;;;;12.40;10.53;;;;;;;4.01;76.75;95296.81;5078463;28;20443;-60
2020/12/03 10:22:17;;;;;;;11.10;9.53;;;;;;;3.94;76.69;95288.28;5080658;28;20414;-63
2020/12/03 10:24:55;;;;;;;12.37;9.90;;;;;;;3.99;76.03;95278.03;5072874;28;20437;-60
2020/12/03 10:28:12;;;;;;;12.20;10.40;;;;;;;4.28;75.37;95276.59;5052627;28;20429;-63
2020/12/03 10:30:39;;;;;;;14.00;10.20;;;;;;;4.19;76.47;95263.09;5043601;28;20526;-60
2020/12/03 10:33:12;;;;;;;13.33;10.40;;;;;;;4.17;74.92;95252.91;5069825;28;20414;-56
2020/12/03 10:35:46;;;;;;;12.60;8.67;;;;;;;3.82;75.75;95246.59;5093371;28;20400;-65
2020/12/03 10:38:42;;;;;;;12.77;9.27;;;;;;;3.91;75.09;95241.94;5092811;28;20406;-60
2020/12/03 10:41:08;;;;;;;10.00;7.60;;;;;;;4.05;74.73;95248.63;5047512;28;20961;-60
2020/12/03 10:43:35;;;;;;;11.13;9.30;;;;;;;3.71;76.10;95243.91;5053261;28;20463;-57
2020/12/03 10:46:05;;;;;;;16.33;10.20;;;;;;;4.00;75.62;95243.28;5061218;28;20419;-57
2020/12/03 10:48:43;;;;;;;11.27;9.03;;;;;;;4.07;74.10;95244.00;5084632;28;20476;-56
2020/12/03 10:51:09;;;;;;;12.30;9.33;;;;;;;3.90;74.68;95250.72;5093025;28;20458;-57
2020/12/03 10:53:37;;;;;;;12.50;9.77;;;;;;;3.45;75.80;95250.06;5093267;28;20427;-60
2020/12/03 10:56:08;;;;;;;10.33;8.70;;;;;;;3.50;76.11;95247.63;5093136;28;20515;-57
2020/12/03 11:01:39;;;;;;;12.70;9.80;;;;;;;3.74;75.48;95241.66;5068528;28;20506;-60
2020/12/03 11:04:06;;;;;;;10.93;9.10;;;;;;;3.52;75.47;95243.00;5072351;28;20517;-57
2020/12/03 11:06:32;;;;;;;11.33;8.77;;;;;;;3.58;75.16;95239.59;5075197;28;20212;-57
2020/12/03 11:09:03;;;;;;;12.27;9.13;;;;;;;3.63;76.05;95239.75;5079633;28;20465;-58
2020/12/03 11:11:39;;;;;;;12.10;9.53;;;;;;;3.39;75.44;95237.91;5096443;28;20408;-56
2020/12/03 11:14:09;;;;;;;11.37;10.17;;;;;;;3.83;75.77;95226.63;5096523;28;20913;-60
2020/12/03 11:16:37;;;;;;;12.70;10.60;;;;;;;4.16;73.47;95227.94;5081509;28;20962;-57
2020/12/03 11:19:08;;;;;;;16.87;12.33;;;;;;;4.26;72.44;95209.25;5075814;28;20935;-57
2020/12/03 11:21:38;;;;;;;19.70;13.53;;;;;;;4.20;71.76;95210.13;5076195;28;20411;-57
2020/12/03 11:24:12;;;;;;;19.10;13.50;;;;;;;4.31;72.52;95206.00;5076084;28;20426;-57
2020/12/03 11:26:41;;;;;;;18.10;12.97;;;;;;;4.22;71.23;95207.28;5076550;28;20435;-60
2020/12/03 11:29:15;;;;;;;13.73;10.90;;;;;;;3.84;71.67;95200.41;5076800;28;20796;-57
2020/12/03 11:31:41;;;;;;;15.23;11.20;;;;;;;3.77;71.51;95199.69;5076212;28;20498;-57
2020/12/03 11:34:07;;;;;;;15.93;12.40;;;;;;;4.05;70.64;95184.47;5084968;28;20429;-56
2020/12/03 11:36:38;;;;;;;19.33;12.27;;;;;;;4.36;70.58;95180.16;5083784;28;20778;-57
2020/12/03 11:39:06;;;;;;;21.40;14.20;;;;;;;4.55;70.61;95172.13;5095535;28;20225;-60
2020/12/03 11:49:30;;;;;;;19.87;13.70;;;;;;;4.42;70.38;95150.69;5095480;28;20506;-57
2020/12/03 11:51:56;;;;;;;15.57;9.80;;;;;;;4.39;69.16;95138.91;5076718;28;20431;-60
2020/12/03 11:54:28;;;;;;;9.07;8.03;;;;;;;4.57;69.23;95143.31;5075295;28;20472;-57
2020/12/03 11:56:59;;;;;;;7.57;6.53;;;;;;;4.51;70.53;95144.19;5075937;28;20178;-60
2020/12/03 11:59:32;;;;;;;9.77;6.57;;;;;;;4.45;69.90;95132.84;5075770;28;20423;-56